| time (UTC) | temp C | wind direction | speed KPH | gust KPH | rain 1hr cm | rain 24hr cm | rain mn cm | humidity % | barometer mb |
| 20260510060050 | 21 | 0 | 0.0 | 0.0 | 0.00 | 0.03 | 0.00 | 86 | 1013.3 |
| 20260510054549 | 21 | 0 | 0.0 | 0.0 | 0.00 | 0.03 | 0.00 | 86 | 1013.3 |
| 20260510053055 | 21 | 0 | 0.0 | 0.0 | 0.00 | 0.03 | 0.00 | 85 | 1013.3 |
| 20260510051552 | 21 | 0 | 0.0 | 0.0 | 0.00 | 0.03 | 0.00 | 85 | 1013.1 |
| 20260510050055 | 21 | 0 | 0.0 | 0.0 | 0.00 | 0.03 | 0.00 | 84 | 1013.1 |
| 20260510044548 | 21 | 0 | 0.0 | 0.0 | 0.00 | 0.03 | 0.03 | 84 | 1012.9 |
| 20260510043051 | 21 | 0 | 0.0 | 0.0 | 0.00 | 0.03 | 0.03 | 82 | 1013.0 |
| 20260510041555 | 21 | 0 | 0.0 | 0.0 | 0.00 | 0.03 | 0.03 | 81 | 1012.8 |
| 20260510040053 | 22 | 0 | 0.0 | 0.0 | 0.00 | 0.03 | 0.03 | 80 | 1012.8 |
| 20260510034609 | 22 | 0 | 0.0 | 0.0 | 0.00 | 0.03 | 0.03 | 78 | 1012.8 |
| 20260510033059 | 22 | 0 | 0.0 | 0.0 | 0.00 | 0.03 | 0.03 | 77 | 1012.5 |
| 20260510031551 | 23 | 0 | 0.0 | 0.0 | 0.00 | 0.03 | 0.03 | 76 | 1012.5 |
| 20260510030054 | 23 | 0 | 0.0 | 0.0 | 0.00 | 0.03 | 0.03 | 75 | 1012.3 |
| 20260510024552 | 23 | 0 | 0.0 | 0.0 | 0.00 | 0.03 | 0.03 | 74 | 1012.0 |
| 20260510023054 | 23 | 0 | 0.0 | 0.0 | 0.00 | 0.03 | 0.03 | 72 | 1011.9 |
| 20260510021601 | 24 | 0 | 0.0 | 0.0 | 0.00 | 0.03 | 0.03 | 69 | 1011.9 |
| 20260510020054 | 25 | 0 | 0.0 | 0.0 | 0.00 | 0.03 | 0.03 | 65 | 1011.7 |
| 20260510014601 | 25 | 0 | 0.0 | 0.0 | 0.00 | 0.03 | 0.03 | 62 | 1011.4 |
| 20260510013107 | 26 | 0 | 0.0 | 3.2 | 0.00 | 0.03 | 0.03 | 60 | 1011.2 |
| 20260510011558 | 27 | 0 | 0.0 | 11.3 | 0.00 | 0.03 | 0.03 | 57 | 1011.1 |
| 20260510010052 | 27 | 0 | 0.0 | 1.6 | 0.00 | 0.03 | 0.03 | 56 | 1011.1 |
| 20260510004555 | 28 | 111 | 1.6 | 6.4 | 0.00 | 0.03 | 0.03 | 55 | 1010.8 |
| 20260510003104 | 28 | 104 | 0.0 | 8.0 | 0.00 | 0.03 | 0.03 | 56 | 1010.4 |
| 20260510001552 | 30 | 98 | 1.6 | 6.4 | 0.00 | 0.03 | 0.03 | 55 | 1010.3 |
| 20260510000113 | 30 | 122 | 0.0 | 4.8 | 0.00 | 0.03 | 0.03 | 54 | 1010.2 |
| 20260509234557 | 31 | 162 | 0.0 | 6.4 | 0.00 | 0.03 | 0.03 | 53 | 1010.1 |
| 20260509233050 | 31 | 0 | 1.6 | 8.0 | 0.00 | 0.03 | 0.03 | 54 | 1010.1 |
| 20260509231556 | 31 | 172 | 3.2 | 8.0 | 0.00 | 0.03 | 0.03 | 53 | 1009.9 |
| 20260509230049 | 30 | 163 | 3.2 | 12.9 | 0.00 | 0.03 | 0.03 | 54 | 1010.0 |
| 20260509224553 | 30 | 124 | 1.6 | 9.7 | 0.00 | 0.03 | 0.03 | 56 | 1010.0 |
| 20260509223103 | 29 | 127 | 6.4 | 29.0 | 0.00 | 0.03 | 0.03 | 55 | 1010.1 |
| 20260509221559 | 30 | 105 | 3.2 | 17.7 | 0.00 | 0.03 | 0.03 | 56 | 1010.1 |
| 20260509220053 | 32 | 76 | 0.0 | 3.2 | 0.00 | 0.03 | 0.03 | 49 | 1010.0 |
| 20260509214600 | 33 | 125 | 3.2 | 6.4 | 0.00 | 0.03 | 0.03 | 46 | 1010.1 |
| 20260509213058 | 33 | 116 | 3.2 | 8.0 | 0.00 | 0.03 | 0.03 | 47 | 1010.1 |
| 20260509211553 | 34 | 0 | 0.0 | 8.0 | 0.00 | 0.03 | 0.03 | 47 | 1010.1 |
| 20260509210057 | 33 | 155 | 3.2 | 9.7 | 0.00 | 0.03 | 0.03 | 48 | 1010.3 |
| 20260509204552 | 33 | 295 | 1.6 | 8.0 | 0.00 | 0.03 | 0.03 | 46 | 1010.6 |
| 20260509203056 | 33 | 16 | 1.6 | 6.4 | 0.00 | 0.03 | 0.03 | 48 | 1010.8 |
| 20260509201548 | 32 | 15 | 1.6 | 6.4 | 0.00 | 0.03 | 0.03 | 49 | 1010.9 |
| 20260509200101 | 32 | 296 | 1.6 | 9.7 | 0.00 | 0.03 | 0.03 | 49 | 1011.2 |
| 20260509194558 | 32 | 29 | 3.2 | 8.0 | 0.00 | 0.03 | 0.03 | 53 | 1011.4 |
| 20260509193054 | 32 | 0 | 1.6 | 6.4 | 0.00 | 0.03 | 0.03 | 54 | 1011.6 |
| 20260509191554 | 32 | 0 | 0.0 | 6.4 | 0.00 | 0.03 | 0.03 | 53 | 1011.9 |
| 20260509190054 | 32 | 147 | 4.8 | 11.3 | 0.00 | 0.03 | 0.03 | 55 | 1012.5 |
| 20260509184549 | 31 | 263 | 0.0 | 6.4 | 0.00 | 0.03 | 0.03 | 58 | 1012.6 |
| 20260509183103 | 31 | 354 | 1.6 | 6.4 | 0.00 | 0.03 | 0.03 | 59 | 1012.5 |
| 20260509181553 | 30 | 309 | 3.2 | 11.3 | 0.00 | 0.03 | 0.03 | 62 | 1012.7 |
| 20260509180058 | 30 | 247 | 3.2 | 8.0 | 0.00 | 0.03 | 0.03 | 63 | 1012.9 |
| 20260509174553 | 30 | 203 | 1.6 | 9.7 | 0.00 | 0.03 | 0.03 | 65 | 1012.9 |
| 20260509173052 | 29 | 85 | 1.6 | 8.0 | 0.00 | 0.03 | 0.03 | 69 | 1013.1 |
| 20260509171547 | 28 | 32 | 1.6 | 6.4 | 0.00 | 0.03 | 0.03 | 68 | 1013.4 |
| 20260509170050 | 28 | 0 | 0.0 | 6.4 | 0.00 | 0.03 | 0.03 | 71 | 1013.3 |
| 20260509164553 | 27 | 0 | 0.0 | 8.0 | 0.00 | 0.03 | 0.03 | 74 | 1013.4 |
| 20260509163056 | 27 | 232 | 3.2 | 9.7 | 0.00 | 0.03 | 0.03 | 75 | 1013.5 |
| 20260509161548 | 26 | 0 | 0.0 | 3.2 | 0.00 | 0.03 | 0.03 | 83 | 1013.7 |
| 20260509160055 | 25 | 0 | 0.0 | 3.2 | 0.00 | 0.03 | 0.03 | 87 | 1013.8 |
| 20260509154550 | 24 | 91 | 0.0 | 1.6 | 0.00 | 0.03 | 0.03 | 89 | 1013.8 |
| 20260509153052 | 23 | 0 | 1.6 | 6.4 | 0.00 | 0.03 | 0.03 | 93 | 1013.7 |
| 20260509151553 | 23 | 0 | 0.0 | 6.4 | 0.00 | 0.03 | 0.03 | 95 | 1013.7 |
| 20260509150050 | 22 | 205 | 1.6 | 9.7 | 0.00 | 0.03 | 0.03 | 96 | 1013.5 |
| 20260509144552 | 22 | 149 | 0.0 | 3.2 | 0.00 | 0.03 | 0.03 | 96 | 1013.6 |
| 20260509143057 | 22 | 319 | 0.0 | 1.6 | 0.00 | 0.03 | 0.03 | 97 | 1013.5 |
| 20260509141600 | 21 | 0 | 0.0 | 1.6 | 0.00 | 0.03 | 0.03 | 97 | 1013.3 |
| 20260509134550 | 21 | 0 | 0.0 | 1.6 | 0.00 | 0.03 | 0.03 | 97 | 1013.2 |
| 20260509133052 | 21 | 0 | 0.0 | 1.6 | 0.00 | 0.03 | 0.03 | 97 | 1013.1 |
| 20260509131552 | 21 | 0 | 0.0 | 1.6 | 0.00 | 0.03 | 0.03 | 97 | 1013.1 |
| 20260509130055 | 21 | 0 | 0.0 | 3.2 | 0.00 | 0.03 | 0.03 | 97 | 1013.2 |
| 20260509124554 | 21 | 6 | 0.0 | 1.6 | 0.00 | 0.03 | 0.03 | 97 | 1013.0 |
| 20260509123118 | 21 | 0 | 0.0 | 4.8 | 0.00 | 0.03 | 0.03 | 97 | 1012.9 |
| 20260509121558 | 21 | 0 | 0.0 | 6.4 | 0.00 | 0.03 | 0.03 | 97 | 1013.1 |
| 20260509120058 | 21 | 35 | 6.4 | 16.1 | 0.00 | 0.03 | 0.03 | 97 | 1013.1 |
| 20260509114553 | 21 | 8 | 1.6 | 8.0 | 0.00 | 0.03 | 0.03 | 97 | 1013.0 |
| 20260509113050 | 21 | 58 | 1.6 | 8.0 | 0.00 | 0.03 | 0.03 | 97 | 1013.2 |
| 20260509111554 | 21 | 320 | 3.2 | 12.9 | 0.00 | 0.03 | 0.03 | 97 | 1013.4 |
| 20260509110050 | 21 | 349 | 3.2 | 9.7 | 0.00 | 0.03 | 0.03 | 97 | 1013.4 |
| 20260509104553 | 21 | 0 | 0.0 | 1.6 | 0.00 | 0.03 | 0.03 | 97 | 1013.0 |
| 20260509103100 | 21 | 0 | 0.0 | 0.0 | 0.00 | 0.03 | 0.03 | 97 | 1013.0 |
| 20260509101552 | 21 | 74 | 0.0 | 1.6 | 0.03 | 0.03 | 0.03 | 97 | 1012.9 |
| 20260509100055 | 21 | 0 | 0.0 | 1.6 | 0.03 | 0.03 | 0.03 | 97 | 1012.4 |
| 20260509094552 | 21 | 0 | 0.0 | 0.0 | 0.03 | 0.03 | 0.03 | 96 | 1012.3 |
| 20260509093125 | 21 | 0 | 0.0 | 0.0 | 0.03 | 0.03 | 0.03 | 96 | 1012.1 |
| 20260509091556 | 21 | 0 | 0.0 | 1.6 | 0.00 | 0.00 | 0.00 | 96 | 1012.3 |
| 20260509090056 | 21 | 0 | 0.0 | 0.0 | 0.00 | 0.00 | 0.00 | 95 | 1012.1 |
| 20260509084552 | 21 | 0 | 0.0 | 0.0 | 0.00 | 0.00 | 0.00 | 94 | 1012.0 |
| 20260509083059 | 21 | 0 | 0.0 | 0.0 | 0.00 | 0.00 | 0.00 | 94 | 1012.1 |
| 20260509081559 | 21 | 0 | 0.0 | 1.6 | 0.00 | 0.00 | 0.00 | 93 | 1012.4 |
| 20260509080057 | 21 | 0 | 0.0 | 3.2 | 0.00 | 0.00 | 0.00 | 93 | 1012.1 |
| 20260509074605 | 21 | 91 | 0.0 | 3.2 | 0.00 | 0.00 | 0.00 | 92 | 1012.1 |
| 20260509073047 | 21 | 0 | 0.0 | 4.8 | 0.00 | 0.00 | 0.00 | 92 | 1012.1 |
| 20260509071604 | 21 | 219 | 0.0 | 1.6 | 0.00 | 0.00 | 0.00 | 92 | 1012.0 |
| 20260509070054 | 21 | 0 | 0.0 | 3.2 | 0.00 | 0.00 | 0.00 | 91 | 1012.3 |
| 20260509064548 | 21 | 0 | 0.0 | 6.4 | 0.00 | 0.00 | 0.00 | 91 | 1012.3 |
| 20260509063048 | 21 | 0 | 1.6 | 4.8 | 0.00 | 0.00 | 0.00 | 91 | 1012.3 |
| 20260509061601 | 21 | 183 | 0.0 | 6.4 | 0.00 | 0.00 | 0.00 | 91 | 1012.2 |